Spabunker 51 — ECNA — position and weather

sailwx.info

Track history (hours):
 
Tides and Currents Weather Stations Pressure Air Temp Water Temp Dewpoint Dewpoint Depression Visibility Wind Speed Wind Dir Waves Ship Positions

Spabunker 51

Last reported at 2016-Jun-29 15:33 UTC. Time now 2016-Jun-29 16:31 UTC.
Position N 36°06' W 005°25'.

Length 84 m; draft 5.8 m.

Type: Tanker. MMSI: 224322240.

Date/timePositionNaut miles runAvg speedWind from/ knotsBaromVisibWave heightAir tempDewpointWater temp
2016-Jun-29 15:33N 36°06' W 005°25'0 0.0
2016-Jun-29 14:33N 36°06' W 005°25'0 0.0
2016-Jun-29 13:21N 36°06' W 005°25'0 0.1
2016-Jun-29 12:33N 36°06' W 005°25'0 0.0
2016-Jun-29 11:33N 36°06' W 005°25'4 4.4
2016-Jun-29 10:33N 36°11' W 005°24'0 0.0
2016-Jun-29 06:33N 36°11' W 005°24'0 0.0
2016-Jun-29 05:33N 36°11' W 005°24'0 0.0
2016-Jun-29 04:33N 36°11' W 005°24'0 0.0
2016-Jun-29 03:32N 36°11' W 005°24'0 0.3
2016-Jun-29 02:33N 36°10' W 005°24'1 1.5
2016-Jun-29 01:33N 36°09' W 005°25'0 0.1
2016-Jun-29 00:33N 36°09' W 005°25'0 0.0
2016-Jun-28 23:33N 36°09' W 005°25'0 0.1
2016-Jun-28 22:30N 36°09' W 005°25'0 0.0
2016-Jun-28 21:27N 36°09' W 005°25'0 0.0
2016-Jun-28 20:11N 36°09' W 005°25'0 0.1
2016-Jun-28 19:33N 36°09' W 005°25'0 0.1
2016-Jun-28 18:33N 36°09' W 005°25'0 0.1
2016-Jun-28 17:33N 36°10' W 005°25'3 3.0
2016-Jun-28 16:33N 36°07' W 005°25'0 0.1
2016-Jun-28 15:33N 36°06' W 005°25'0 0.0
2016-Jun-28 14:33N 36°06' W 005°25'0 0.0
2016-Jun-28 13:21N 36°06' W 005°25'2 1.5
2016-Jun-28 12:15N 36°05' W 005°25'2 0.7
2016-Jun-28 09:33N 36°07' W 005°24'2 1.8
2016-Jun-28 08:16N 36°09' W 005°26'0 0.0
2016-Jun-28 07:33N 36°09' W 005°26'0 0.0
2016-Jun-28 06:33N 36°09' W 005°26'0 0.0
2016-Jun-28 04:33N 36°09' W 005°26'0 0.0
2016-Jun-28 03:33N 36°09' W 005°26'0 0.0
2016-Jun-28 02:33N 36°09' W 005°26'1 1.5
2016-Jun-28 01:33N 36°07' W 005°25'0 0.1
2016-Jun-28 00:32N 36°07' W 005°25'0 0.0
2016-Jun-27 23:32N 36°07' W 005°25'0 0.0
2016-Jun-27 22:33N 36°07' W 005°25'0 0.0
2016-Jun-27 21:32N 36°07' W 005°25'1 1.5
2016-Jun-27 20:32N 36°09' W 005°26'0 0.0
2016-Jun-27 18:16N 36°09' W 005°26'0 0.0
2016-Jun-27 17:24N 36°09' W 005°26'0 0.0
2016-Jun-27 16:33N 36°09' W 005°26'0 0.0
2016-Jun-27 15:33N 36°09' W 005°26'0 0.0
2016-Jun-27 14:25N 36°09' W 005°26'0 0.0
2016-Jun-27 13:05N 36°09' W 005°26'0 0.0
2016-Jun-27 12:27N 36°09' W 005°26'0 0.0
2016-Jun-27 10:27N 36°09' W 005°26'2 1.2
2016-Jun-27 08:28N 36°11' W 005°24'0 0.0
2016-Jun-27 06:22N 36°11' W 005°24'0 0.0
2016-Jun-27 05:33N 36°11' W 005°24'0 0.0
2016-Jun-27 04:30N 36°11' W 005°24'0 0.0
2016-Jun-27 03:32N 36°11' W 005°24'0 0.0
2016-Jun-27 02:33N 36°11' W 005°24'0 0.0
2016-Jun-27 01:32N 36°11' W 005°24'0 0.0
2016-Jun-27 00:33N 36°11' W 005°24'0 0.0
2016-Jun-26 23:32N 36°11' W 005°24'0 0.0
2016-Jun-26 22:12N 36°11' W 005°24'0 0.6
2016-Jun-26 21:33N 36°11' W 005°23'4 1.9
2016-Jun-26 19:15N 36°06' W 005°24'1 1.1
2016-Jun-26 18:33N 36°05' W 005°24'0 0.0
2016-Jun-26 17:33N 36°05' W 005°24'0 0.0
2016-Jun-26 16:33N 36°05' W 005°24'0 0.0
2016-Jun-26 15:33N 36°05' W 005°24'0 0.0
2016-Jun-26 14:33N 36°05' W 005°25'0 0.0
2016-Jun-26 13:33N 36°05' W 005°24'0 0.4
2016-Jun-26 12:33N 36°06' W 005°25'0 0.0
2016-Jun-26 11:26N 36°06' W 005°25'0 0.0
2016-Jun-26 10:33N 36°06' W 005°25'0 0.1
2016-Jun-26 09:33N 36°06' W 005°25'0 0.1
2016-Jun-26 08:33N 36°06' W 005°24'0 0.1
2016-Jun-26 07:33N 36°06' W 005°24'0 0.0
2016-Jun-26 06:33N 36°06' W 005°24'0 0.0
2016-Jun-26 05:33N 36°06' W 005°24'0 0.0
2016-Jun-26 04:33N 36°06' W 005°24'0 0.1
2016-Jun-26 03:33N 36°06' W 005°25'0 0.0
2016-Jun-26 02:33N 36°06' W 005°25'1 1.3
2016-Jun-26 01:33N 36°05' W 005°24'0 0.1
2016-Jun-26 00:33N 36°05' W 005°24'0 0.0
2016-Jun-25 23:33N 36°05' W 005°24'0 0.1
2016-Jun-25 22:33N 36°05' W 005°24'0 0.0
2016-Jun-25 21:33N 36°05' W 005°24'0 0.2
2016-Jun-25 20:33N 36°05' W 005°24'0 0.1
2016-Jun-25 19:33N 36°05' W 005°24'1 0.6
2016-Jun-25 18:33N 36°06' W 005°23'3 2.9
2016-Jun-25 17:27N 36°08' W 005°26'0 0.0
2016-Jun-25 16:33N 36°08' W 005°26'0 0.0
2016-Jun-25 15:33N 36°08' W 005°26'0 0.0
2016-Jun-25 14:33N 36°08' W 005°26'1 1.2
2016-Jun-25 13:33N 36°08' W 005°24'3 2.7
2016-Jun-25 12:33N 36°05' W 005°24'0 0.1
2016-Jun-25 11:33N 36°05' W 005°24'0 0.0
2016-Jun-25 10:33N 36°05' W 005°24'0 0.2
2016-Jun-25 09:33N 36°05' W 005°24'0 0.1
2016-Jun-25 08:33N 36°05' W 005°24'0 0.1
2016-Jun-25 07:33N 36°05' W 005°24'0 0.2
2016-Jun-25 06:33N 36°05' W 005°24'0 0.1
2016-Jun-25 05:33N 36°05' W 005°24'0 0.0
2016-Jun-25 04:33N 36°05' W 005°24'0 0.1
2016-Jun-25 03:33N 36°05' W 005°24'0 0.1
2016-Jun-25 02:33N 36°05' W 005°24'0 0.1
2016-Jun-25 01:32N 36°05' W 005°24'1 0.9
2016-Jun-25 00:33N 36°05' W 005°25'0 0.0
2016-Jun-24 23:33N 36°05' W 005°25'0 0.2
2016-Jun-24 22:31N 36°05' W 005°25'0 0.0
2016-Jun-24 21:33N 36°05' W 005°25'1 1.3
2016-Jun-24 20:33N 36°06' W 005°25'0 0.3
2016-Jun-24 19:33N 36°06' W 005°25'2 2.5
2016-Jun-24 18:33N 36°08' W 005°26'0 0.1
2016-Jun-24 17:33N 36°08' W 005°26'0 0.0
2016-Jun-24 16:33N 36°08' W 005°26'0 0.0
2016-Jun-24 15:33N 36°08' W 005°26'0 0.0
2016-Jun-24 14:30N 36°08' W 005°26'0 0.0
2016-Jun-24 13:32N 36°08' W 005°26'0 0.0
2016-Jun-24 12:33N 36°08' W 005°26'0 0.0
2016-Jun-24 11:31N 36°08' W 005°26'0 0.5
2016-Jun-24 10:33N 36°09' W 005°26'0 0.0
2016-Jun-24 09:33N 36°09' W 005°26'3 3.0
2016-Jun-24 08:24N 36°06' W 005°24'0 0.0
2016-Jun-24 07:26N 36°06' W 005°24'0 0.0
2016-Jun-24 04:33N 36°06' W 005°24'0 0.1
2016-Jun-24 03:31N 36°06' W 005°24'0 0.1
2016-Jun-24 02:33N 36°06' W 005°24'0 0.0
2016-Jun-24 01:33N 36°06' W 005°24'0 0.0
2016-Jun-24 00:33N 36°06' W 005°24'0 0.1
2016-Jun-23 23:33N 36°06' W 005°24'0 0.0
2016-Jun-23 22:32N 36°06' W 005°24'1 1.2
2016-Jun-23 21:33N 36°07' W 005°24'2 1.9
2016-Jun-23 20:17N 36°09' W 005°26'0 0.0
2016-Jun-23 19:33N 36°09' W 005°26'0 0.0
2016-Jun-23 18:33N 36°09' W 005°26'0 0.0
2016-Jun-23 16:32N 36°09' W 005°26'0 0.0
2016-Jun-23 15:23N 36°09' W 005°26'0 0.0
2016-Jun-23 13:30N 36°09' W 005°26'0 0.0
2016-Jun-23 08:04N 36°09' W 005°26'0 0.4
2016-Jun-23 07:32N 36°09' W 005°26'0 0.0
2016-Jun-23 05:33N 36°09' W 005°26'1 0.9
2016-Jun-23 04:33N 36°08' W 005°25'0 0.0
2016-Jun-23 03:31N 36°08' W 005°25'0 0.0
2016-Jun-23 02:33N 36°08' W 005°25'0 0.0
2016-Jun-23 01:33N 36°08' W 005°25'0 0.0
2016-Jun-23 00:33N 36°08' W 005°25'1 0.8
2016-Jun-22 23:33N 36°09' W 005°25'0 0.3
2016-Jun-22 22:27N 36°09' W 005°26'0 0.0
2016-Jun-22 21:21N 36°09' W 005°26'2 1.3
2016-Jun-22 19:32N 36°11' W 005°24'0 0.0
2016-Jun-22 16:29N 36°11' W 005°24'0 0.0
2016-Jun-22 15:30N 36°11' W 005°24'0 0.0
2016-Jun-22 13:29N 36°11' W 005°24'0 0.5
2016-Jun-22 12:33N 36°11' W 005°23'0 0.0
2016-Jun-22 11:28N 36°10' W 005°23'0 0.0
2016-Jun-22 10:21N 36°10' W 005°23'1 0.7
2016-Jun-22 09:27N 36°10' W 005°24'0 0.1
2016-Jun-22 08:33N 36°10' W 005°24'0 0.1
2016-Jun-22 06:26N 36°10' W 005°24'0 0.0
2016-Jun-22 05:31N 36°10' W 005°24'0 0.0
2016-Jun-22 02:33N 36°10' W 005°24'2 1.6
2016-Jun-22 01:19N 36°09' W 005°26'0 0.1
2016-Jun-22 00:33N 36°09' W 005°26'0 0.0
2016-Jun-21 23:33N 36°09' W 005°26'0 0.0
2016-Jun-21 22:33N 36°09' W 005°26'0 0.0
2016-Jun-21 21:33N 36°09' W 005°26'0 0.0
2016-Jun-21 20:33N 36°09' W 005°26'0 0.0
2016-Jun-21 19:33N 36°09' W 005°26'0 0.1
2016-Jun-21 17:13N 36°09' W 005°26'0 0.0
2016-Jun-21 16:27N 36°09' W 005°26'0 0.0
2016-Jun-21 15:12N 36°09' W 005°26'0 0.0
2016-Jun-21 11:33N 36°08' W 005°26'3 0.6
2016-Jun-21 07:06N 36°10' W 005°23'0 0.2
2016-Jun-21 04:29N 36°10' W 005°24'0 0.0
2016-Jun-21 02:20N 36°10' W 005°24'4 4.4
2016-Jun-21 01:33N 36°07' W 005°24'2 1.8
2016-Jun-21 00:31N 36°05' W 005°24'0 0.0
2016-Jun-20 23:33N 36°05' W 005°24'0 0.1
2016-Jun-20 22:33N 36°05' W 005°24'0 0.2
2016-Jun-20 21:33N 36°05' W 005°24'0 0.2
2016-Jun-20 20:33N 36°05' W 005°24'0 0.3
2016-Jun-20 19:31N 36°05' W 005°24'0 0.2
2016-Jun-20 17:33N 36°05' W 005°24'3 2.6
2016-Jun-20 16:21N 36°08' W 005°26'0 0.0
2016-Jun-20 15:22N 36°08' W 005°26'0 0.0
2016-Jun-20 14:03N 36°08' W 005°26'0 0.0
2016-Jun-20 13:09N 36°08' W 005°26'0 0.0
2016-Jun-20 12:33N 36°08' W 005°26'0 0.0
2016-Jun-20 11:32N 36°08' W 005°26'0 0.0
2016-Jun-20 10:33N 36°08' W 005°26'0 0.0
2016-Jun-20 09:33N 36°08' W 005°26'0 0.2
2016-Jun-20 08:33N 36°08' W 005°26'3 3.0
2016-Jun-20 07:32N 36°06' W 005°24'0 0.1
2016-Jun-20 06:33N 36°05' W 005°24'0 0.0
2016-Jun-20 05:33N 36°05' W 005°24'0 0.2
2016-Jun-20 04:33N 36°06' W 005°24'0 0.1
2016-Jun-20 03:33N 36°06' W 005°24'0 0.0
2016-Jun-20 02:33N 36°06' W 005°24'1 0.9
2016-Jun-20 01:33N 36°07' W 005°24'1 0.3
2016-Jun-19 23:24N 36°07' W 005°24'0 0.1
2016-Jun-19 22:32N 36°07' W 005°24'0 0.1
2016-Jun-19 21:32N 36°07' W 005°24'0 0.1
2016-Jun-19 19:13N 36°07' W 005°24'0 0.0
2016-Jun-19 18:33N 36°07' W 005°24'0 0.0
2016-Jun-19 17:33N 36°07' W 005°24'2 2.1
2016-Jun-19 16:33N 36°09' W 005°26'  
Track history (hours):
 
Tides and Currents Weather Stations Pressure Air Temp Water Temp Dewpoint Dewpoint Depression Visibility Wind Speed Wind Dir Waves Ship Positions

Spabunker 51

Last reported at 2016-Jun-29 15:33 UTC. Time now 2016-Jun-29 16:31 UTC.
Position N 36°06' W 005°25'.

Length 84 m; draft 5.8 m.

Type: Tanker. MMSI: 224322240.

Date/timePositionNaut miles runAvg speedWind from/ knotsBaromVisibWave heightAir tempDewpointWater temp
2016-Jun-29 15:33N 36°06' W 005°25'0 0.0
2016-Jun-29 14:33N 36°06' W 005°25'0 0.0
2016-Jun-29 13:21N 36°06' W 005°25'0 0.1
2016-Jun-29 12:33N 36°06' W 005°25'0 0.0
2016-Jun-29 11:33N 36°06' W 005°25'4 4.4
2016-Jun-29 10:33N 36°11' W 005°24'0 0.0
2016-Jun-29 06:33N 36°11' W 005°24'0 0.0
2016-Jun-29 05:33N 36°11' W 005°24'0 0.0
2016-Jun-29 04:33N 36°11' W 005°24'0 0.0
2016-Jun-29 03:32N 36°11' W 005°24'0 0.3
2016-Jun-29 02:33N 36°10' W 005°24'1 1.5
2016-Jun-29 01:33N 36°09' W 005°25'0 0.1
2016-Jun-29 00:33N 36°09' W 005°25'0 0.0
2016-Jun-28 23:33N 36°09' W 005°25'0 0.1
2016-Jun-28 22:30N 36°09' W 005°25'0 0.0
2016-Jun-28 21:27N 36°09' W 005°25'0 0.0
2016-Jun-28 20:11N 36°09' W 005°25'0 0.1
2016-Jun-28 19:33N 36°09' W 005°25'0 0.1
2016-Jun-28 18:33N 36°09' W 005°25'0 0.1
2016-Jun-28 17:33N 36°10' W 005°25'3 3.0
2016-Jun-28 16:33N 36°07' W 005°25'0 0.1
2016-Jun-28 15:33N 36°06' W 005°25'0 0.0
2016-Jun-28 14:33N 36°06' W 005°25'0 0.0
2016-Jun-28 13:21N 36°06' W 005°25'2 1.5
2016-Jun-28 12:15N 36°05' W 005°25'2 0.7
2016-Jun-28 09:33N 36°07' W 005°24'2 1.8
2016-Jun-28 08:16N 36°09' W 005°26'0 0.0
2016-Jun-28 07:33N 36°09' W 005°26'0 0.0
2016-Jun-28 06:33N 36°09' W 005°26'0 0.0
2016-Jun-28 04:33N 36°09' W 005°26'0 0.0
2016-Jun-28 03:33N 36°09' W 005°26'0 0.0
2016-Jun-28 02:33N 36°09' W 005°26'1 1.5
2016-Jun-28 01:33N 36°07' W 005°25'0 0.1
2016-Jun-28 00:32N 36°07' W 005°25'0 0.0
2016-Jun-27 23:32N 36°07' W 005°25'0 0.0
2016-Jun-27 22:33N 36°07' W 005°25'0 0.0
2016-Jun-27 21:32N 36°07' W 005°25'1 1.5
2016-Jun-27 20:32N 36°09' W 005°26'0 0.0
2016-Jun-27 18:16N 36°09' W 005°26'0 0.0
2016-Jun-27 17:24N 36°09' W 005°26'0 0.0
2016-Jun-27 16:33N 36°09' W 005°26'0 0.0
2016-Jun-27 15:33N 36°09' W 005°26'0 0.0
2016-Jun-27 14:25N 36°09' W 005°26'0 0.0
2016-Jun-27 13:05N 36°09' W 005°26'0 0.0
2016-Jun-27 12:27N 36°09' W 005°26'0 0.0
2016-Jun-27 10:27N 36°09' W 005°26'2 1.2
2016-Jun-27 08:28N 36°11' W 005°24'0 0.0
2016-Jun-27 06:22N 36°11' W 005°24'0 0.0
2016-Jun-27 05:33N 36°11' W 005°24'0 0.0
2016-Jun-27 04:30N 36°11' W 005°24'0 0.0
2016-Jun-27 03:32N 36°11' W 005°24'0 0.0
2016-Jun-27 02:33N 36°11' W 005°24'0 0.0
2016-Jun-27 01:32N 36°11' W 005°24'0 0.0
2016-Jun-27 00:33N 36°11' W 005°24'0 0.0
2016-Jun-26 23:32N 36°11' W 005°24'0 0.0
2016-Jun-26 22:12N 36°11' W 005°24'0 0.6
2016-Jun-26 21:33N 36°11' W 005°23'4 1.9
2016-Jun-26 19:15N 36°06' W 005°24'1 1.1
2016-Jun-26 18:33N 36°05' W 005°24'0 0.0
2016-Jun-26 17:33N 36°05' W 005°24'0 0.0
2016-Jun-26 16:33N 36°05' W 005°24'0 0.0
2016-Jun-26 15:33N 36°05' W 005°24'0 0.0
2016-Jun-26 14:33N 36°05' W 005°25'0 0.0
2016-Jun-26 13:33N 36°05' W 005°24'0 0.4
2016-Jun-26 12:33N 36°06' W 005°25'0 0.0
2016-Jun-26 11:26N 36°06' W 005°25'0 0.0
2016-Jun-26 10:33N 36°06' W 005°25'0 0.1
2016-Jun-26 09:33N 36°06' W 005°25'0 0.1
2016-Jun-26 08:33N 36°06' W 005°24'0 0.1
2016-Jun-26 07:33N 36°06' W 005°24'0 0.0
2016-Jun-26 06:33N 36°06' W 005°24'0 0.0
2016-Jun-26 05:33N 36°06' W 005°24'0 0.0
2016-Jun-26 04:33N 36°06' W 005°24'0 0.1
2016-Jun-26 03:33N 36°06' W 005°25'0 0.0
2016-Jun-26 02:33N 36°06' W 005°25'1 1.3
2016-Jun-26 01:33N 36°05' W 005°24'0 0.1
2016-Jun-26 00:33N 36°05' W 005°24'0 0.0
2016-Jun-25 23:33N 36°05' W 005°24'0 0.1
2016-Jun-25 22:33N 36°05' W 005°24'0 0.0
2016-Jun-25 21:33N 36°05' W 005°24'0 0.2
2016-Jun-25 20:33N 36°05' W 005°24'0 0.1
2016-Jun-25 19:33N 36°05' W 005°24'1 0.6
2016-Jun-25 18:33N 36°06' W 005°23'3 2.9
2016-Jun-25 17:27N 36°08' W 005°26'0 0.0
2016-Jun-25 16:33N 36°08' W 005°26'0 0.0
2016-Jun-25 15:33N 36°08' W 005°26'0 0.0
2016-Jun-25 14:33N 36°08' W 005°26'1 1.2
2016-Jun-25 13:33N 36°08' W 005°24'3 2.7
2016-Jun-25 12:33N 36°05' W 005°24'0 0.1
2016-Jun-25 11:33N 36°05' W 005°24'0 0.0
2016-Jun-25 10:33N 36°05' W 005°24'0 0.2
2016-Jun-25 09:33N 36°05' W 005°24'0 0.1
2016-Jun-25 08:33N 36°05' W 005°24'0 0.1
2016-Jun-25 07:33N 36°05' W 005°24'0 0.2
2016-Jun-25 06:33N 36°05' W 005°24'0 0.1
2016-Jun-25 05:33N 36°05' W 005°24'0 0.0
2016-Jun-25 04:33N 36°05' W 005°24'0 0.1
2016-Jun-25 03:33N 36°05' W 005°24'0 0.1
2016-Jun-25 02:33N 36°05' W 005°24'0 0.1
2016-Jun-25 01:32N 36°05' W 005°24'1 0.9
2016-Jun-25 00:33N 36°05' W 005°25'0 0.0
2016-Jun-24 23:33N 36°05' W 005°25'0 0.2
2016-Jun-24 22:31N 36°05' W 005°25'0 0.0
2016-Jun-24 21:33N 36°05' W 005°25'1 1.3
2016-Jun-24 20:33N 36°06' W 005°25'0 0.3
2016-Jun-24 19:33N 36°06' W 005°25'2 2.5
2016-Jun-24 18:33N 36°08' W 005°26'0 0.1
2016-Jun-24 17:33N 36°08' W 005°26'0 0.0
2016-Jun-24 16:33N 36°08' W 005°26'0 0.0
2016-Jun-24 15:33N 36°08' W 005°26'0 0.0
2016-Jun-24 14:30N 36°08' W 005°26'0 0.0
2016-Jun-24 13:32N 36°08' W 005°26'0 0.0
2016-Jun-24 12:33N 36°08' W 005°26'0 0.0
2016-Jun-24 11:31N 36°08' W 005°26'0 0.5
2016-Jun-24 10:33N 36°09' W 005°26'0 0.0
2016-Jun-24 09:33N 36°09' W 005°26'3 3.0
2016-Jun-24 08:24N 36°06' W 005°24'0 0.0
2016-Jun-24 07:26N 36°06' W 005°24'0 0.0
2016-Jun-24 04:33N 36°06' W 005°24'0 0.1
2016-Jun-24 03:31N 36°06' W 005°24'0 0.1
2016-Jun-24 02:33N 36°06' W 005°24'0 0.0
2016-Jun-24 01:33N 36°06' W 005°24'0 0.0
2016-Jun-24 00:33N 36°06' W 005°24'0 0.1
2016-Jun-23 23:33N 36°06' W 005°24'0 0.0
2016-Jun-23 22:32N 36°06' W 005°24'1 1.2
2016-Jun-23 21:33N 36°07' W 005°24'2 1.9
2016-Jun-23 20:17N 36°09' W 005°26'0 0.0
2016-Jun-23 19:33N 36°09' W 005°26'0 0.0
2016-Jun-23 18:33N 36°09' W 005°26'0 0.0
2016-Jun-23 16:32N 36°09' W 005°26'0 0.0
2016-Jun-23 15:23N 36°09' W 005°26'0 0.0
2016-Jun-23 13:30N 36°09' W 005°26'0 0.0
2016-Jun-23 08:04N 36°09' W 005°26'0 0.4
2016-Jun-23 07:32N 36°09' W 005°26'0 0.0
2016-Jun-23 05:33N 36°09' W 005°26'1 0.9
2016-Jun-23 04:33N 36°08' W 005°25'0 0.0
2016-Jun-23 03:31N 36°08' W 005°25'0 0.0
2016-Jun-23 02:33N 36°08' W 005°25'0 0.0
2016-Jun-23 01:33N 36°08' W 005°25'0 0.0
2016-Jun-23 00:33N 36°08' W 005°25'1 0.8
2016-Jun-22 23:33N 36°09' W 005°25'0 0.3
2016-Jun-22 22:27N 36°09' W 005°26'0 0.0
2016-Jun-22 21:21N 36°09' W 005°26'2 1.3
2016-Jun-22 19:32N 36°11' W 005°24'0 0.0
2016-Jun-22 16:29N 36°11' W 005°24'0 0.0
2016-Jun-22 15:30N 36°11' W 005°24'0 0.0
2016-Jun-22 13:29N 36°11' W 005°24'0 0.5
2016-Jun-22 12:33N 36°11' W 005°23'0 0.0
2016-Jun-22 11:28N 36°10' W 005°23'0 0.0
2016-Jun-22 10:21N 36°10' W 005°23'1 0.7
2016-Jun-22 09:27N 36°10' W 005°24'0 0.1
2016-Jun-22 08:33N 36°10' W 005°24'0 0.1
2016-Jun-22 06:26N 36°10' W 005°24'0 0.0
2016-Jun-22 05:31N 36°10' W 005°24'0 0.0
2016-Jun-22 02:33N 36°10' W 005°24'2 1.6
2016-Jun-22 01:19N 36°09' W 005°26'0 0.1
2016-Jun-22 00:33N 36°09' W 005°26'0 0.0
2016-Jun-21 23:33N 36°09' W 005°26'0 0.0
2016-Jun-21 22:33N 36°09' W 005°26'0 0.0
2016-Jun-21 21:33N 36°09' W 005°26'0 0.0
2016-Jun-21 20:33N 36°09' W 005°26'0 0.0
2016-Jun-21 19:33N 36°09' W 005°26'0 0.1
2016-Jun-21 17:13N 36°09' W 005°26'0 0.0
2016-Jun-21 16:27N 36°09' W 005°26'0 0.0
2016-Jun-21 15:12N 36°09' W 005°26'0 0.0
2016-Jun-21 11:33N 36°08' W 005°26'3 0.6
2016-Jun-21 07:06N 36°10' W 005°23'0 0.2
2016-Jun-21 04:29N 36°10' W 005°24'0 0.0
2016-Jun-21 02:20N 36°10' W 005°24'4 4.4
2016-Jun-21 01:33N 36°07' W 005°24'2 1.8
2016-Jun-21 00:31N 36°05' W 005°24'0 0.0
2016-Jun-20 23:33N 36°05' W 005°24'0 0.1
2016-Jun-20 22:33N 36°05' W 005°24'0 0.2
2016-Jun-20 21:33N 36°05' W 005°24'0 0.2
2016-Jun-20 20:33N 36°05' W 005°24'0 0.3
2016-Jun-20 19:31N 36°05' W 005°24'0 0.2
2016-Jun-20 17:33N 36°05' W 005°24'3 2.6
2016-Jun-20 16:21N 36°08' W 005°26'0 0.0
2016-Jun-20 15:22N 36°08' W 005°26'0 0.0
2016-Jun-20 14:03N 36°08' W 005°26'0 0.0
2016-Jun-20 13:09N 36°08' W 005°26'0 0.0
2016-Jun-20 12:33N 36°08' W 005°26'0 0.0
2016-Jun-20 11:32N 36°08' W 005°26'0 0.0
2016-Jun-20 10:33N 36°08' W 005°26'0 0.0
2016-Jun-20 09:33N 36°08' W 005°26'0 0.2
2016-Jun-20 08:33N 36°08' W 005°26'3 3.0
2016-Jun-20 07:32N 36°06' W 005°24'0 0.1
2016-Jun-20 06:33N 36°05' W 005°24'0 0.0
2016-Jun-20 05:33N 36°05' W 005°24'0 0.2
2016-Jun-20 04:33N 36°06' W 005°24'0 0.1
2016-Jun-20 03:33N 36°06' W 005°24'0 0.0
2016-Jun-20 02:33N 36°06' W 005°24'1 0.9
2016-Jun-20 01:33N 36°07' W 005°24'1 0.3
2016-Jun-19 23:24N 36°07' W 005°24'0 0.1
2016-Jun-19 22:32N 36°07' W 005°24'0 0.1
2016-Jun-19 21:32N 36°07' W 005°24'0 0.1
2016-Jun-19 19:13N 36°07' W 005°24'0 0.0
2016-Jun-19 18:33N 36°07' W 005°24'0 0.0
2016-Jun-19 17:33N 36°07' W 005°24'2 2.1
2016-Jun-19 16:33N 36°09' W 005°26'  

Dump ship's entire track history